sensor_id;sensor_type;location;lat;lon;timestamp;pressure;altitude;pressure_sealevel;temperature
69597;BMP180;70000;51.176;-115.568;2023-12-20T00:02:03;85414.20;;;3.00
69597;BMP180;70000;51.176;-115.568;2023-12-20T00:04:32;85417.20;;;3.00
69597;BMP180;70000;51.176;-115.568;2023-12-20T00:07:01;85421.40;;;3.00
69597;BMP180;70000;51.176;-115.568;2023-12-20T00:09:31;85425.00;;;3.06
69597;BMP180;70000;51.176;-115.568;2023-12-20T00:11:59;85421.00;;;3.10
69597;BMP180;70000;51.176;-115.568;2023-12-20T00:14:28;85421.80;;;3.10
69597;BMP180;70000;51.176;-115.568;2023-12-20T00:16:57;85421.60;;;3.10
69597;BMP180;70000;51.176;-115.568;2023-12-20T00:19:26;85427.20;;;3.10
69597;BMP180;70000;51.176;-115.568;2023-12-20T00:21:55;85421.40;;;3.10
69597;BMP180;70000;51.176;-115.568;2023-12-20T00:24:24;85423.20;;;3.10
69597;BMP180;70000;51.176;-115.568;2023-12-20T00:26:54;85427.40;;;3.10
69597;BMP180;70000;51.176;-115.568;2023-12-20T00:29:22;85421.80;;;3.10
69597;BMP180;70000;51.176;-115.568;2023-12-20T00:31:51;85430.00;;;3.10
69597;BMP180;70000;51.176;-115.568;2023-12-20T00:34:20;85429.60;;;3.10
69597;BMP180;70000;51.176;-115.568;2023-12-20T00:36:49;85432.40;;;3.10
69597;BMP180;70000;51.176;-115.568;2023-12-20T00:39:21;85433.20;;;3.10
69597;BMP180;70000;51.176;-115.568;2023-12-20T00:41:50;85438.80;;;3.00
69597;BMP180;70000;51.176;-115.568;2023-12-20T00:44:19;85437.20;;;3.02
69597;BMP180;70000;51.176;-115.568;2023-12-20T00:46:48;85437.40;;;3.10
69597;BMP180;70000;51.176;-115.568;2023-12-20T00:49:20;85435.60;;;3.10
69597;BMP180;70000;51.176;-115.568;2023-12-20T00:51:49;85445.00;;;3.10
69597;BMP180;70000;51.176;-115.568;2023-12-20T00:54:21;85446.60;;;3.06
69597;BMP180;70000;51.176;-115.568;2023-12-20T00:56:53;85441.00;;;3.10
69597;BMP180;70000;51.176;-115.568;2023-12-20T00:59:58;85441.20;;;3.00
69597;BMP180;70000;51.176;-115.568;2023-12-20T01:02:26;85437.40;;;3.00
69597;BMP180;70000;51.176;-115.568;2023-12-20T01:04:55;85433.00;;;3.02
69597;BMP180;70000;51.176;-115.568;2023-12-20T01:07:23;85436.20;;;3.00
69597;BMP180;70000;51.176;-115.568;2023-12-20T01:09:51;85438.40;;;3.00
69597;BMP180;70000;51.176;-115.568;2023-12-20T01:12:19;85443.40;;;3.00
69597;BMP180;70000;51.176;-115.568;2023-12-20T01:14:48;85447.20;;;3.00
69597;BMP180;70000;51.176;-115.568;2023-12-20T01:17:16;85447.80;;;2.92
69597;BMP180;70000;51.176;-115.568;2023-12-20T01:19:44;85447.00;;;2.90
69597;BMP180;70000;51.176;-115.568;2023-12-20T01:22:13;85438.80;;;2.90
69597;BMP180;70000;51.176;-115.568;2023-12-20T01:27:52;85440.20;;;2.90
69597;BMP180;70000;51.176;-115.568;2023-12-20T01:30:21;85440.60;;;2.98
69597;BMP180;70000;51.176;-115.568;2023-12-20T01:32:50;85443.20;;;3.00
69597;BMP180;70000;51.176;-115.568;2023-12-20T01:35:19;85444.20;;;3.00
69597;BMP180;70000;51.176;-115.568;2023-12-20T01:37:48;85442.80;;;3.00
69597;BMP180;70000;51.176;-115.568;2023-12-20T01:40:18;85433.00;;;3.00
69597;BMP180;70000;51.176;-115.568;2023-12-20T01:42:57;85437.40;;;3.00
69597;BMP180;70000;51.176;-115.568;2023-12-20T01:45:26;85434.00;;;3.00
69597;BMP180;70000;51.176;-115.568;2023-12-20T01:47:57;85437.00;;;3.00
69597;BMP180;70000;51.176;-115.568;2023-12-20T01:50:30;85441.20;;;3.00
69597;BMP180;70000;51.176;-115.568;2023-12-20T01:53:02;85436.40;;;3.00
69597;BMP180;70000;51.176;-115.568;2023-12-20T01:55:35;85432.80;;;3.00
69597;BMP180;70000;51.176;-115.568;2023-12-20T01:58:07;85435.20;;;2.98
69597;BMP180;70000;51.176;-115.568;2023-12-20T02:00:37;85438.20;;;2.98
69597;BMP180;70000;51.176;-115.568;2023-12-20T02:03:07;85434.80;;;3.00
69597;BMP180;70000;51.176;-115.568;2023-12-20T02:05:38;85440.60;;;3.00
69597;BMP180;70000;51.176;-115.568;2023-12-20T02:08:07;85436.00;;;3.00
69597;BMP180;70000;51.176;-115.568;2023-12-20T02:10:37;85437.20;;;3.00
69597;BMP180;70000;51.176;-115.568;2023-12-20T02:13:06;85442.20;;;3.00
69597;BMP180;70000;51.176;-115.568;2023-12-20T02:15:35;85441.40;;;3.00
69597;BMP180;70000;51.176;-115.568;2023-12-20T02:18:11;85449.00;;;3.00
69597;BMP180;70000;51.176;-115.568;2023-12-20T02:20:43;85445.80;;;3.00
69597;BMP180;70000;51.176;-115.568;2023-12-20T02:23:13;85452.40;;;3.00
69597;BMP180;70000;51.176;-115.568;2023-12-20T02:25:45;85450.00;;;2.92
69597;BMP180;70000;51.176;-115.568;2023-12-20T02:28:14;85453.00;;;2.94
69597;BMP180;70000;51.176;-115.568;2023-12-20T02:30:43;85453.20;;;2.90
69597;BMP180;70000;51.176;-115.568;2023-12-20T02:33:48;85455.00;;;2.90
69597;BMP180;70000;51.176;-115.568;2023-12-20T02:36:17;85449.20;;;2.90
69597;BMP180;70000;51.176;-115.568;2023-12-20T02:38:45;85450.60;;;2.90
69597;BMP180;70000;51.176;-115.568;2023-12-20T02:41:14;85453.20;;;2.90
69597;BMP180;70000;51.176;-115.568;2023-12-20T02:43:48;85451.20;;;3.00
69597;BMP180;70000;51.176;-115.568;2023-12-20T02:46:17;85450.80;;;3.02
69597;BMP180;70000;51.176;-115.568;2023-12-20T02:48:46;85448.20;;;3.10
69597;BMP180;70000;51.176;-115.568;2023-12-20T02:51:15;85447.80;;;3.10
69597;BMP180;70000;51.176;-115.568;2023-12-20T02:53:43;85445.40;;;3.16
69597;BMP180;70000;51.176;-115.568;2023-12-20T02:56:11;85447.20;;;3.20
69597;BMP180;70000;51.176;-115.568;2023-12-20T02:58:41;85447.40;;;3.20
69597;BMP180;70000;51.176;-115.568;2023-12-20T03:01:09;85444.60;;;3.16
69597;BMP180;70000;51.176;-115.568;2023-12-20T03:03:38;85450.20;;;3.16
69597;BMP180;70000;51.176;-115.568;2023-12-20T03:06:06;85446.60;;;3.10
69597;BMP180;70000;51.176;-115.568;2023-12-20T03:08:34;85453.60;;;3.10
69597;BMP180;70000;51.176;-115.568;2023-12-20T03:11:03;85448.40;;;3.10
69597;BMP180;70000;51.176;-115.568;2023-12-20T03:13:31;85446.80;;;3.10
69597;BMP180;70000;51.176;-115.568;2023-12-20T03:16:09;85445.00;;;3.06
69597;BMP180;70000;51.176;-115.568;2023-12-20T03:18:41;85442.80;;;3.00
69597;BMP180;70000;51.176;-115.568;2023-12-20T03:21:09;85438.00;;;3.00
69597;BMP180;70000;51.176;-115.568;2023-12-20T03:23:38;85435.60;;;3.00
69597;BMP180;70000;51.176;-115.568;2023-12-20T03:26:09;85435.40;;;3.00
69597;BMP180;70000;51.176;-115.568;2023-12-20T03:28:38;85439.20;;;3.00
69597;BMP180;70000;51.176;-115.568;2023-12-20T03:34:13;85439.80;;;2.90
69597;BMP180;70000;51.176;-115.568;2023-12-20T03:36:42;85435.60;;;2.90
69597;BMP180;70000;51.176;-115.568;2023-12-20T03:39:27;85442.60;;;2.82
69597;BMP180;70000;51.176;-115.568;2023-12-20T03:41:57;85435.60;;;2.80
69597;BMP180;70000;51.176;-115.568;2023-12-20T03:44:26;85430.20;;;2.80
69597;BMP180;70000;51.176;-115.568;2023-12-20T03:46:55;85432.80;;;2.80
69597;BMP180;70000;51.176;-115.568;2023-12-20T03:49:23;85433.60;;;2.80
69597;BMP180;70000;51.176;-115.568;2023-12-20T03:51:53;85439.40;;;2.78
69597;BMP180;70000;51.176;-115.568;2023-12-20T03:54:21;85437.20;;;2.76
69597;BMP180;70000;51.176;-115.568;2023-12-20T03:56:51;85438.20;;;2.70
69597;BMP180;70000;51.176;-115.568;2023-12-20T03:59:19;85446.00;;;2.70
69597;BMP180;70000;51.176;-115.568;2023-12-20T04:01:48;85442.80;;;2.70
69597;BMP180;70000;51.176;-115.568;2023-12-20T04:04:18;85436.60;;;2.70
69597;BMP180;70000;51.176;-115.568;2023-12-20T04:06:47;85437.20;;;2.70
69597;BMP180;70000;51.176;-115.568;2023-12-20T04:09:17;85442.20;;;2.70
69597;BMP180;70000;51.176;-115.568;2023-12-20T04:11:46;85436.00;;;2.70
69597;BMP180;70000;51.176;-115.568;2023-12-20T04:14:15;85436.00;;;2.70
69597;BMP180;70000;51.176;-115.568;2023-12-20T04:16:43;85432.80;;;2.70
69597;BMP180;70000;51.176;-115.568;2023-12-20T04:19:14;85437.20;;;2.70
69597;BMP180;70000;51.176;-115.568;2023-12-20T04:21:43;85434.40;;;2.70
69597;BMP180;70000;51.176;-115.568;2023-12-20T04:24:12;85436.40;;;2.80
69597;BMP180;70000;51.176;-115.568;2023-12-20T04:26:41;85437.80;;;2.80
69597;BMP180;70000;51.176;-115.568;2023-12-20T04:29:10;85448.20;;;2.80
69597;BMP180;70000;51.176;-115.568;2023-12-20T04:31:38;85452.80;;;2.86
69597;BMP180;70000;51.176;-115.568;2023-12-20T04:34:08;85453.00;;;2.90
69597;BMP180;70000;51.176;-115.568;2023-12-20T04:36:37;85453.60;;;2.90
69597;BMP180;70000;51.176;-115.568;2023-12-20T04:39:06;85453.40;;;2.90
69597;BMP180;70000;51.176;-115.568;2023-12-20T04:41:35;85450.60;;;2.90
69597;BMP180;70000;51.176;-115.568;2023-12-20T04:44:04;85452.80;;;2.90
69597;BMP180;70000;51.176;-115.568;2023-12-20T04:46:33;85451.60;;;2.90
69597;BMP180;70000;51.176;-115.568;2023-12-20T04:49:02;85452.40;;;2.90
69597;BMP180;70000;51.176;-115.568;2023-12-20T04:51:36;85449.40;;;2.88
69597;BMP180;70000;51.176;-115.568;2023-12-20T04:54:08;85440.80;;;2.80
69597;BMP180;70000;51.176;-115.568;2023-12-20T04:56:39;85441.60;;;2.80
69597;BMP180;70000;51.176;-115.568;2023-12-20T04:59:08;85441.00;;;2.80
69597;BMP180;70000;51.176;-115.568;2023-12-20T05:01:37;85445.80;;;2.80
69597;BMP180;70000;51.176;-115.568;2023-12-20T05:04:06;85439.20;;;2.90
69597;BMP180;70000;51.176;-115.568;2023-12-20T05:06:35;85453.20;;;2.90
69597;BMP180;70000;51.176;-115.568;2023-12-20T05:09:04;85456.40;;;2.90
69597;BMP180;70000;51.176;-115.568;2023-12-20T05:11:37;85460.40;;;2.86
69597;BMP180;70000;51.176;-115.568;2023-12-20T05:14:06;85455.20;;;2.88
69597;BMP180;70000;51.176;-115.568;2023-12-20T05:16:38;85459.00;;;2.82
69597;BMP180;70000;51.176;-115.568;2023-12-20T05:19:07;85454.60;;;2.80
69597;BMP180;70000;51.176;-115.568;2023-12-20T05:21:36;85458.00;;;2.80
69597;BMP180;70000;51.176;-115.568;2023-12-20T05:24:05;85462.40;;;2.80
69597;BMP180;70000;51.176;-115.568;2023-12-20T05:26:34;85461.00;;;2.88
69597;BMP180;70000;51.176;-115.568;2023-12-20T05:29:03;85459.80;;;2.90
69597;BMP180;70000;51.176;-115.568;2023-12-20T05:31:33;85459.60;;;2.90
69597;BMP180;70000;51.176;-115.568;2023-12-20T05:34:02;85471.40;;;2.90
69597;BMP180;70000;51.176;-115.568;2023-12-20T05:36:31;85475.40;;;2.90
69597;BMP180;70000;51.176;-115.568;2023-12-20T05:39:01;85474.60;;;2.90
69597;BMP180;70000;51.176;-115.568;2023-12-20T05:41:30;85484.40;;;2.90
69597;BMP180;70000;51.176;-115.568;2023-12-20T05:43:59;85479.00;;;2.90
69597;BMP180;70000;51.176;-115.568;2023-12-20T05:46:28;85473.80;;;2.94
69597;BMP180;70000;51.176;-115.568;2023-12-20T05:49:03;85472.60;;;3.00
69597;BMP180;70000;51.176;-115.568;2023-12-20T05:51:32;85469.00;;;3.00
69597;BMP180;70000;51.176;-115.568;2023-12-20T05:57:28;85477.60;;;3.00
69597;BMP180;70000;51.176;-115.568;2023-12-20T05:59:56;85477.40;;;3.00
69597;BMP180;70000;51.176;-115.568;2023-12-20T06:02:25;85478.00;;;3.00
69597;BMP180;70000;51.176;-115.568;2023-12-20T06:04:53;85485.80;;;3.00
69597;BMP180;70000;51.176;-115.568;2023-12-20T06:07:22;85489.00;;;3.00
69597;BMP180;70000;51.176;-115.568;2023-12-20T06:09:51;85497.00;;;2.98
69597;BMP180;70000;51.176;-115.568;2023-12-20T06:12:19;85506.80;;;2.90
69597;BMP180;70000;51.176;-115.568;2023-12-20T06:14:47;85508.00;;;2.90
69597;BMP180;70000;51.176;-115.568;2023-12-20T06:17:16;85513.40;;;2.90
69597;BMP180;70000;51.176;-115.568;2023-12-20T06:19:45;85507.20;;;2.90
69597;BMP180;70000;51.176;-115.568;2023-12-20T06:22:16;85506.80;;;2.90
69597;BMP180;70000;51.176;-115.568;2023-12-20T06:24:44;85519.80;;;2.90
69597;BMP180;70000;51.176;-115.568;2023-12-20T06:27:16;85526.00;;;2.90
69597;BMP180;70000;51.176;-115.568;2023-12-20T06:29:47;85525.40;;;2.90
69597;BMP180;70000;51.176;-115.568;2023-12-20T06:32:16;85525.60;;;2.90
69597;BMP180;70000;51.176;-115.568;2023-12-20T06:34:44;85527.40;;;2.90
69597;BMP180;70000;51.176;-115.568;2023-12-20T06:37:13;85531.00;;;2.90
69597;BMP180;70000;51.176;-115.568;2023-12-20T06:39:42;85527.40;;;2.90
69597;BMP180;70000;51.176;-115.568;2023-12-20T06:42:11;85521.60;;;2.90
69597;BMP180;70000;51.176;-115.568;2023-12-20T06:44:39;85532.00;;;2.90
69597;BMP180;70000;51.176;-115.568;2023-12-20T06:47:08;85528.40;;;2.90
69597;BMP180;70000;51.176;-115.568;2023-12-20T06:49:36;85524.00;;;2.90
69597;BMP180;70000;51.176;-115.568;2023-12-20T06:52:04;85521.00;;;2.90
69597;BMP180;70000;51.176;-115.568;2023-12-20T06:54:33;85524.20;;;2.90
69597;BMP180;70000;51.176;-115.568;2023-12-20T06:57:02;85523.20;;;2.82
69597;BMP180;70000;51.176;-115.568;2023-12-20T07:02:55;85516.20;;;2.72
69597;BMP180;70000;51.176;-115.568;2023-12-20T07:05:24;85511.20;;;2.70
69597;BMP180;70000;51.176;-115.568;2023-12-20T07:07:53;85515.40;;;2.70
69597;BMP180;70000;51.176;-115.568;2023-12-20T07:10:21;85521.20;;;2.70
69597;BMP180;70000;51.176;-115.568;2023-12-20T07:12:50;85526.00;;;2.70
69597;BMP180;70000;51.176;-115.568;2023-12-20T07:15:19;85521.20;;;2.70
69597;BMP180;70000;51.176;-115.568;2023-12-20T07:17:47;85516.80;;;2.70
69597;BMP180;70000;51.176;-115.568;2023-12-20T07:20:19;85518.20;;;2.70
69597;BMP180;70000;51.176;-115.568;2023-12-20T07:22:47;85528.60;;;2.70
69597;BMP180;70000;51.176;-115.568;2023-12-20T07:25:15;85535.80;;;2.70
69597;BMP180;70000;51.176;-115.568;2023-12-20T07:27:44;85531.40;;;2.70
69597;BMP180;70000;51.176;-115.568;2023-12-20T07:30:13;85535.60;;;2.70
69597;BMP180;70000;51.176;-115.568;2023-12-20T07:32:41;85529.20;;;2.70
69597;BMP180;70000;51.176;-115.568;2023-12-20T07:35:10;85526.60;;;2.70
69597;BMP180;70000;51.176;-115.568;2023-12-20T07:37:41;85534.00;;;2.66
69597;BMP180;70000;51.176;-115.568;2023-12-20T07:40:10;85535.00;;;2.60
69597;BMP180;70000;51.176;-115.568;2023-12-20T07:42:38;85532.80;;;2.64
69597;BMP180;70000;51.176;-115.568;2023-12-20T07:45:07;85533.40;;;2.70
69597;BMP180;70000;51.176;-115.568;2023-12-20T07:47:35;85537.80;;;2.70
69597;BMP180;70000;51.176;-115.568;2023-12-20T07:50:04;85544.00;;;2.70
69597;BMP180;70000;51.176;-115.568;2023-12-20T07:52:33;85546.60;;;2.70
69597;BMP180;70000;51.176;-115.568;2023-12-20T07:55:01;85550.00;;;2.78
69597;BMP180;70000;51.176;-115.568;2023-12-20T07:57:30;85543.40;;;2.80
69597;BMP180;70000;51.176;-115.568;2023-12-20T07:59:58;85546.40;;;2.84
69597;BMP180;70000;51.176;-115.568;2023-12-20T08:02:26;85545.60;;;2.90
69597;BMP180;70000;51.176;-115.568;2023-12-20T08:04:55;85550.60;;;2.92
69597;BMP180;70000;51.176;-115.568;2023-12-20T08:07:23;85555.00;;;2.98
69597;BMP180;70000;51.176;-115.568;2023-12-20T08:09:52;85555.00;;;2.92
69597;BMP180;70000;51.176;-115.568;2023-12-20T08:12:22;85549.60;;;2.90
69597;BMP180;70000;51.176;-115.568;2023-12-20T08:14:50;85551.00;;;2.90
69597;BMP180;70000;51.176;-115.568;2023-12-20T08:17:19;85554.80;;;2.90
69597;BMP180;70000;51.176;-115.568;2023-12-20T08:19:47;85561.20;;;2.90
69597;BMP180;70000;51.176;-115.568;2023-12-20T08:22:15;85554.40;;;2.90
69597;BMP180;70000;51.176;-115.568;2023-12-20T08:24:44;85554.00;;;2.94
69597;BMP180;70000;51.176;-115.568;2023-12-20T08:27:12;85548.00;;;2.96
69597;BMP180;70000;51.176;-115.568;2023-12-20T08:29:40;85550.80;;;2.98
69597;BMP180;70000;51.176;-115.568;2023-12-20T08:32:08;85545.60;;;3.00
69597;BMP180;70000;51.176;-115.568;2023-12-20T08:34:37;85548.20;;;3.00
69597;BMP180;70000;51.176;-115.568;2023-12-20T08:37:06;85551.40;;;3.00
69597;BMP180;70000;51.176;-115.568;2023-12-20T08:39:34;85550.40;;;3.00
69597;BMP180;70000;51.176;-115.568;2023-12-20T08:42:02;85552.00;;;3.00
69597;BMP180;70000;51.176;-115.568;2023-12-20T08:44:31;85551.60;;;3.00
69597;BMP180;70000;51.176;-115.568;2023-12-20T08:46:59;85551.60;;;3.00
69597;BMP180;70000;51.176;-115.568;2023-12-20T08:49:30;85551.00;;;3.00
69597;BMP180;70000;51.176;-115.568;2023-12-20T08:51:59;85556.20;;;3.00
69597;BMP180;70000;51.176;-115.568;2023-12-20T08:54:27;85555.80;;;3.02
69597;BMP180;70000;51.176;-115.568;2023-12-20T08:56:55;85560.80;;;3.10
69597;BMP180;70000;51.176;-115.568;2023-12-20T08:59:24;85561.20;;;3.10
69597;BMP180;70000;51.176;-115.568;2023-12-20T09:01:52;85565.60;;;3.10
69597;BMP180;70000;51.176;-115.568;2023-12-20T09:04:22;85566.40;;;3.10
69597;BMP180;70000;51.176;-115.568;2023-12-20T09:06:53;85572.60;;;3.12
69597;BMP180;70000;51.176;-115.568;2023-12-20T09:09:22;85573.60;;;3.20
69597;BMP180;70000;51.176;-115.568;2023-12-20T09:11:50;85575.60;;;3.20
69597;BMP180;70000;51.176;-115.568;2023-12-20T09:14:19;85580.40;;;3.20
69597;BMP180;70000;51.176;-115.568;2023-12-20T09:16:47;85576.60;;;3.20
69597;BMP180;70000;51.176;-115.568;2023-12-20T09:19:16;85587.00;;;3.28
69597;BMP180;70000;51.176;-115.568;2023-12-20T09:21:44;85593.20;;;3.30
69597;BMP180;70000;51.176;-115.568;2023-12-20T09:24:16;85595.00;;;3.30
69597;BMP180;70000;51.176;-115.568;2023-12-20T09:26:44;85598.80;;;3.30
69597;BMP180;70000;51.176;-115.568;2023-12-20T09:29:13;85595.20;;;3.30
69597;BMP180;70000;51.176;-115.568;2023-12-20T09:31:43;85600.80;;;3.30
69597;BMP180;70000;51.176;-115.568;2023-12-20T09:34:15;85605.00;;;3.22
69597;BMP180;70000;51.176;-115.568;2023-12-20T09:36:43;85595.80;;;3.20
69597;BMP180;70000;51.176;-115.568;2023-12-20T09:39:17;85601.00;;;3.22
69597;BMP180;70000;51.176;-115.568;2023-12-20T09:42:00;85608.60;;;3.30
69597;BMP180;70000;51.176;-115.568;2023-12-20T09:44:31;85611.80;;;3.30
69597;BMP180;70000;51.176;-115.568;2023-12-20T09:47:03;85610.60;;;3.30
69597;BMP180;70000;51.176;-115.568;2023-12-20T09:49:33;85609.60;;;3.30
69597;BMP180;70000;51.176;-115.568;2023-12-20T09:52:05;85608.80;;;3.30
69597;BMP180;70000;51.176;-115.568;2023-12-20T09:54:36;85605.40;;;3.30
69597;BMP180;70000;51.176;-115.568;2023-12-20T09:57:05;85607.60;;;3.30
69597;BMP180;70000;51.176;-115.568;2023-12-20T09:59:33;85611.60;;;3.30
69597;BMP180;70000;51.176;-115.568;2023-12-20T10:02:04;85617.00;;;3.30
69597;BMP180;70000;51.176;-115.568;2023-12-20T10:04:36;85606.60;;;3.30
69597;BMP180;70000;51.176;-115.568;2023-12-20T10:07:05;85610.60;;;3.30
69597;BMP180;70000;51.176;-115.568;2023-12-20T10:09:34;85613.40;;;3.30
69597;BMP180;70000;51.176;-115.568;2023-12-20T10:12:04;85612.20;;;3.30
69597;BMP180;70000;51.176;-115.568;2023-12-20T10:14:33;85612.80;;;3.30
69597;BMP180;70000;51.176;-115.568;2023-12-20T10:17:05;85614.20;;;3.30
69597;BMP180;70000;51.176;-115.568;2023-12-20T10:19:34;85610.80;;;3.30
69597;BMP180;70000;51.176;-115.568;2023-12-20T10:22:04;85606.80;;;3.30
69597;BMP180;70000;51.176;-115.568;2023-12-20T10:24:33;85604.80;;;3.30
69597;BMP180;70000;51.176;-115.568;2023-12-20T10:27:06;85603.20;;;3.32
69597;BMP180;70000;51.176;-115.568;2023-12-20T10:29:38;85607.40;;;3.30
69597;BMP180;70000;51.176;-115.568;2023-12-20T10:34:55;85606.60;;;3.32
69597;BMP180;70000;51.176;-115.568;2023-12-20T10:37:24;85608.40;;;3.38
69597;BMP180;70000;51.176;-115.568;2023-12-20T10:39:55;85609.80;;;3.40
69597;BMP180;70000;51.176;-115.568;2023-12-20T10:42:27;85608.60;;;3.30
69597;BMP180;70000;51.176;-115.568;2023-12-20T10:44:58;85615.00;;;3.30
69597;BMP180;70000;51.176;-115.568;2023-12-20T10:47:30;85613.60;;;3.30
69597;BMP180;70000;51.176;-115.568;2023-12-20T10:50:01;85620.60;;;3.30
69597;BMP180;70000;51.176;-115.568;2023-12-20T10:52:32;85623.00;;;3.30
69597;BMP180;70000;51.176;-115.568;2023-12-20T10:55:02;85628.00;;;3.30
69597;BMP180;70000;51.176;-115.568;2023-12-20T10:57:31;85629.60;;;3.30
69597;BMP180;70000;51.176;-115.568;2023-12-20T11:00:03;85633.80;;;3.30
69597;BMP180;70000;51.176;-115.568;2023-12-20T11:02:33;85624.00;;;3.32
69597;BMP180;70000;51.176;-115.568;2023-12-20T11:08:22;85629.00;;;3.36
69597;BMP180;70000;51.176;-115.568;2023-12-20T11:13:34;85627.20;;;3.40
69597;BMP180;70000;51.176;-115.568;2023-12-20T11:16:05;85620.40;;;3.40
69597;BMP180;70000;51.176;-115.568;2023-12-20T11:18:35;85623.00;;;3.40
69597;BMP180;70000;51.176;-115.568;2023-12-20T11:21:05;85621.80;;;3.40
69597;BMP180;70000;51.176;-115.568;2023-12-20T11:23:33;85620.00;;;3.38
69597;BMP180;70000;51.176;-115.568;2023-12-20T11:26:03;85626.20;;;3.40
69597;BMP180;70000;51.176;-115.568;2023-12-20T11:28:33;85621.00;;;3.30
69597;BMP180;70000;51.176;-115.568;2023-12-20T11:31:02;85617.20;;;3.30
69597;BMP180;70000;51.176;-115.568;2023-12-20T11:33:38;85627.20;;;3.30
69597;BMP180;70000;51.176;-115.568;2023-12-20T11:36:18;85625.00;;;3.30
69597;BMP180;70000;51.176;-115.568;2023-12-20T11:38:57;85639.00;;;3.30
69597;BMP180;70000;51.176;-115.568;2023-12-20T11:41:26;85628.60;;;3.20
69597;BMP180;70000;51.176;-115.568;2023-12-20T11:43:56;85624.60;;;3.20
69597;BMP180;70000;51.176;-115.568;2023-12-20T11:46:25;85628.20;;;3.20
69597;BMP180;70000;51.176;-115.568;2023-12-20T11:48:55;85635.40;;;3.20
69597;BMP180;70000;51.176;-115.568;2023-12-20T11:51:23;85640.60;;;3.20
69597;BMP180;70000;51.176;-115.568;2023-12-20T11:53:55;85635.20;;;3.14
69597;BMP180;70000;51.176;-115.568;2023-12-20T11:56:23;85635.20;;;3.12
69597;BMP180;70000;51.176;-115.568;2023-12-20T11:58:52;85633.60;;;3.10
69597;BMP180;70000;51.176;-115.568;2023-12-20T12:01:21;85629.20;;;3.10
69597;BMP180;70000;51.176;-115.568;2023-12-20T12:04:07;85627.60;;;3.10
69597;BMP180;70000;51.176;-115.568;2023-12-20T12:06:36;85613.20;;;3.10
69597;BMP180;70000;51.176;-115.568;2023-12-20T12:09:07;85612.60;;;3.10
69597;BMP180;70000;51.176;-115.568;2023-12-20T12:11:38;85616.80;;;3.12
69597;BMP180;70000;51.176;-115.568;2023-12-20T12:14:08;85613.60;;;3.20
69597;BMP180;70000;51.176;-115.568;2023-12-20T12:16:36;85610.20;;;3.18
69597;BMP180;70000;51.176;-115.568;2023-12-20T12:19:07;85599.60;;;3.10
69597;BMP180;70000;51.176;-115.568;2023-12-20T12:21:35;85598.20;;;3.10
69597;BMP180;70000;51.176;-115.568;2023-12-20T12:24:23;85605.40;;;3.10
69597;BMP180;70000;51.176;-115.568;2023-12-20T12:26:52;85602.80;;;3.10
69597;BMP180;70000;51.176;-115.568;2023-12-20T12:29:21;85602.40;;;3.10
69597;BMP180;70000;51.176;-115.568;2023-12-20T12:31:51;85598.40;;;3.08
69597;BMP180;70000;51.176;-115.568;2023-12-20T12:34:20;85596.00;;;3.00
69597;BMP180;70000;51.176;-115.568;2023-12-20T12:36:50;85593.00;;;3.00
69597;BMP180;70000;51.176;-115.568;2023-12-20T12:39:20;85602.60;;;3.00
69597;BMP180;70000;51.176;-115.568;2023-12-20T12:41:49;85590.60;;;2.94
69597;BMP180;70000;51.176;-115.568;2023-12-20T12:44:18;85594.20;;;2.98
69597;BMP180;70000;51.176;-115.568;2023-12-20T12:46:47;85589.40;;;2.96
69597;BMP180;70000;51.176;-115.568;2023-12-20T12:49:22;85592.40;;;2.90
69597;BMP180;70000;51.176;-115.568;2023-12-20T12:51:51;85597.40;;;2.90
69597;BMP180;70000;51.176;-115.568;2023-12-20T12:54:20;85593.80;;;2.90
69597;BMP180;70000;51.176;-115.568;2023-12-20T12:56:52;85587.00;;;2.90
69597;BMP180;70000;51.176;-115.568;2023-12-20T12:59:21;85584.20;;;2.90
69597;BMP180;70000;51.176;-115.568;2023-12-20T13:01:51;85591.40;;;2.80
69597;BMP180;70000;51.176;-115.568;2023-12-20T13:04:20;85581.20;;;2.80
69597;BMP180;70000;51.176;-115.568;2023-12-20T13:06:49;85594.00;;;2.80
69597;BMP180;70000;51.176;-115.568;2023-12-20T13:09:18;85587.80;;;2.80
69597;BMP180;70000;51.176;-115.568;2023-12-20T13:11:47;85583.60;;;2.80
69597;BMP180;70000;51.176;-115.568;2023-12-20T13:14:16;85586.60;;;2.80
69597;BMP180;70000;51.176;-115.568;2023-12-20T13:16:46;85586.80;;;2.80
69597;BMP180;70000;51.176;-115.568;2023-12-20T13:19:14;85577.40;;;2.80
69597;BMP180;70000;51.176;-115.568;2023-12-20T13:21:46;85584.20;;;2.80
69597;BMP180;70000;51.176;-115.568;2023-12-20T13:24:15;85582.00;;;2.80
69597;BMP180;70000;51.176;-115.568;2023-12-20T13:26:44;85578.40;;;2.80
69597;BMP180;70000;51.176;-115.568;2023-12-20T13:29:13;85585.80;;;2.80
69597;BMP180;70000;51.176;-115.568;2023-12-20T13:31:42;85582.80;;;2.88
69597;BMP180;70000;51.176;-115.568;2023-12-20T13:34:11;85574.60;;;2.90
69597;BMP180;70000;51.176;-115.568;2023-12-20T13:36:41;85580.00;;;2.90
69597;BMP180;70000;51.176;-115.568;2023-12-20T13:39:10;85580.40;;;2.90
69597;BMP180;70000;51.176;-115.568;2023-12-20T13:41:39;85583.20;;;2.90
69597;BMP180;70000;51.176;-115.568;2023-12-20T13:46:38;85591.20;;;2.90
69597;BMP180;70000;51.176;-115.568;2023-12-20T13:49:07;85592.40;;;2.90
69597;BMP180;70000;51.176;-115.568;2023-12-20T13:51:40;85595.20;;;2.90
69597;BMP180;70000;51.176;-115.568;2023-12-20T13:54:10;85594.60;;;2.90
69597;BMP180;70000;51.176;-115.568;2023-12-20T13:56:39;85607.60;;;2.90
69597;BMP180;70000;51.176;-115.568;2023-12-20T13:59:23;85598.80;;;2.90
69597;BMP180;70000;51.176;-115.568;2023-12-20T14:01:52;85600.40;;;2.90
69597;BMP180;70000;51.176;-115.568;2023-12-20T14:04:21;85599.20;;;2.90
69597;BMP180;70000;51.176;-115.568;2023-12-20T14:07:10;85604.40;;;2.90
69597;BMP180;70000;51.176;-115.568;2023-12-20T14:09:41;85598.00;;;2.90
69597;BMP180;70000;51.176;-115.568;2023-12-20T14:12:17;85610.20;;;2.90
69597;BMP180;70000;51.176;-115.568;2023-12-20T14:14:46;85618.60;;;2.90
69597;BMP180;70000;51.176;-115.568;2023-12-20T14:17:15;85624.20;;;2.90
69597;BMP180;70000;51.176;-115.568;2023-12-20T14:19:44;85625.00;;;2.98
69597;BMP180;70000;51.176;-115.568;2023-12-20T14:22:13;85626.40;;;3.00
69597;BMP180;70000;51.176;-115.568;2023-12-20T14:24:45;85625.60;;;3.00